createdAt,value
2019-01-27T00:00:27.538Z,975.93
2019-01-27T00:01:27.528Z,975.95
2019-01-27T00:02:27.514Z,975.86
2019-01-27T00:03:27.515Z,975.83
2019-01-27T00:04:27.540Z,975.86
2019-01-27T00:05:27.490Z,975.79
2019-01-27T00:06:27.465Z,975.81
2019-01-27T00:07:27.467Z,975.79
2019-01-27T00:08:27.445Z,975.83
2019-01-27T00:09:27.433Z,975.85
2019-01-27T00:10:27.467Z,975.79
2019-01-27T00:11:27.410Z,975.81
2019-01-27T00:12:27.400Z,975.84
2019-01-27T00:13:27.389Z,975.78
2019-01-27T00:14:27.392Z,975.79
2019-01-27T00:15:27.377Z,975.76
2019-01-27T00:16:27.405Z,975.80
2019-01-27T00:17:27.345Z,975.76
2019-01-27T00:18:27.336Z,975.74
2019-01-27T00:19:27.324Z,975.75
2019-01-27T00:20:27.320Z,975.73
2019-01-27T00:21:27.308Z,975.78
2019-01-27T00:22:27.493Z,975.69
2019-01-27T00:23:27.281Z,975.73
2019-01-27T00:24:27.270Z,975.63
2019-01-27T00:25:27.260Z,975.59
2019-01-27T00:26:27.253Z,975.54
2019-01-27T00:27:27.237Z,975.48
2019-01-27T00:28:27.266Z,975.40
2019-01-27T00:29:27.214Z,975.36
2019-01-27T00:30:27.206Z,975.36
2019-01-27T00:31:27.194Z,975.38
2019-01-27T00:32:27.183Z,975.36
2019-01-27T00:33:27.174Z,975.27
2019-01-27T00:34:27.216Z,975.29
2019-01-27T00:35:27.168Z,975.23
2019-01-27T00:36:27.160Z,975.15
2019-01-27T00:37:27.129Z,975.17
2019-01-27T00:38:27.116Z,975.09
2019-01-27T00:39:27.106Z,975.09
2019-01-27T00:40:27.133Z,975.04
2019-01-27T00:41:27.088Z,975.00
2019-01-27T00:42:27.085Z,974.96
2019-01-27T00:43:27.069Z,975.04
2019-01-27T00:44:27.056Z,974.98
2019-01-27T00:45:27.058Z,974.97
2019-01-27T00:46:27.083Z,974.95
2019-01-27T00:47:27.061Z,974.91
2019-01-27T00:48:27.026Z,974.88
2019-01-27T00:49:27.004Z,974.89
2019-01-27T00:50:26.996Z,974.81
2019-01-27T00:51:26.991Z,974.82
2019-01-27T00:52:27.012Z,974.75
2019-01-27T00:53:26.961Z,974.72
2019-01-27T00:54:26.947Z,974.69
2019-01-27T00:55:26.941Z,974.64
2019-01-27T00:56:26.935Z,974.65
2019-01-27T00:57:26.933Z,974.64
2019-01-27T00:58:26.946Z,974.60
2019-01-27T00:59:26.890Z,974.58
2019-01-27T01:00:26.881Z,974.52
2019-01-27T01:01:26.883Z,974.49
2019-01-27T01:02:26.873Z,974.50
2019-01-27T01:03:26.858Z,974.47
2019-01-27T01:04:26.870Z,974.46
2019-01-27T01:05:26.832Z,974.42
2019-01-27T01:06:26.823Z,974.38
2019-01-27T01:07:26.819Z,974.35
2019-01-27T01:08:26.793Z,974.33
2019-01-27T01:09:26.789Z,974.29
2019-01-27T01:10:26.815Z,974.34
2019-01-27T01:11:26.769Z,974.27
2019-01-27T01:12:26.755Z,974.28
2019-01-27T01:13:26.751Z,974.24
2019-01-27T01:14:26.750Z,974.25
2019-01-27T01:15:26.728Z,974.19
2019-01-27T01:16:26.786Z,974.17
2019-01-27T01:17:26.700Z,974.17
2019-01-27T01:18:26.684Z,974.12
2019-01-27T01:19:26.698Z,974.12
2019-01-27T01:20:26.669Z,974.10
2019-01-27T01:21:26.654Z,974.05
2019-01-27T01:22:26.692Z,974.00
2019-01-27T01:23:26.656Z,974.04
2019-01-27T01:24:26.629Z,973.95
2019-01-27T01:25:26.628Z,973.97
2019-01-27T01:26:26.608Z,973.91
2019-01-27T01:27:26.593Z,973.95
2019-01-27T01:28:26.615Z,973.94
2019-01-27T01:29:26.569Z,973.91
2019-01-27T01:30:26.559Z,973.90
2019-01-27T01:31:28.037Z,973.87
2019-01-27T01:32:26.554Z,973.89
2019-01-27T01:33:26.527Z,973.84
2019-01-27T01:34:26.558Z,973.86
2019-01-27T01:35:26.504Z,973.82
2019-01-27T01:36:26.500Z,973.85
2019-01-27T01:37:26.485Z,973.79
2019-01-27T01:38:26.501Z,973.78
2019-01-27T01:39:26.461Z,973.82
2019-01-27T01:40:26.488Z,973.79
2019-01-27T01:41:26.457Z,973.71
2019-01-27T01:42:26.441Z,973.78
2019-01-27T01:43:26.417Z,973.73
2019-01-27T01:44:26.428Z,973.71
2019-01-27T01:45:26.398Z,973.70
2019-01-27T01:46:26.437Z,973.71
2019-01-27T01:47:26.373Z,973.64
2019-01-27T01:48:26.369Z,973.63
2019-01-27T01:49:26.376Z,973.52
2019-01-27T01:50:26.361Z,973.52
2019-01-27T01:51:26.358Z,973.49
2019-01-27T01:52:26.496Z,973.51
2019-01-27T01:53:26.331Z,973.50
2019-01-27T01:54:26.308Z,973.52
2019-01-27T01:55:26.288Z,973.45
2019-01-27T01:56:26.279Z,973.45
2019-01-27T01:57:26.273Z,973.39
2019-01-27T01:58:26.290Z,973.41
2019-01-27T01:59:26.276Z,973.40
2019-01-27T02:00:26.247Z,973.31
2019-01-27T02:01:26.224Z,973.33
2019-01-27T02:02:26.222Z,973.27
2019-01-27T02:03:26.202Z,973.27
2019-01-27T02:04:26.478Z,973.28
2019-01-27T02:05:26.183Z,973.21
2019-01-27T02:06:26.172Z,973.13
2019-01-27T02:07:26.162Z,973.14
2019-01-27T02:08:26.151Z,973.09
2019-01-27T02:09:26.137Z,973.05
2019-01-27T02:10:26.166Z,973.04
2019-01-27T02:11:26.117Z,972.99
2019-01-27T02:12:26.106Z,973.03
2019-01-27T02:13:26.095Z,972.95
2019-01-27T02:14:26.117Z,972.96
2019-01-27T02:15:26.084Z,972.97
2019-01-27T02:16:26.123Z,972.93
2019-01-27T02:17:26.061Z,972.92
2019-01-27T02:18:26.039Z,972.91
2019-01-27T02:19:26.042Z,972.92
2019-01-27T02:20:26.028Z,972.84
2019-01-27T02:21:26.011Z,972.87
2019-01-27T02:22:26.031Z,972.81
2019-01-27T02:23:26.000Z,972.84
2019-01-27T02:24:26.016Z,972.89
2019-01-27T02:25:25.970Z,972.75
2019-01-27T02:26:25.980Z,972.76
2019-01-27T02:27:25.956Z,972.71
2019-01-27T02:28:26.127Z,972.69
2019-01-27T02:29:25.920Z,972.71
2019-01-27T02:30:25.915Z,972.72
2019-01-27T02:31:25.915Z,972.65
2019-01-27T02:32:25.927Z,972.62
2019-01-27T02:33:25.895Z,972.64
2019-01-27T02:34:25.962Z,972.68
2019-01-27T02:35:25.856Z,972.68
2019-01-27T02:36:25.852Z,972.69
2019-01-27T02:37:25.843Z,972.63
2019-01-27T02:38:25.823Z,972.58
2019-01-27T02:39:25.815Z,972.56
2019-01-27T02:40:25.846Z,972.51
2019-01-27T02:41:25.826Z,972.52
2019-01-27T02:42:25.780Z,972.45
2019-01-27T02:43:25.773Z,972.47
2019-01-27T02:44:25.791Z,972.40
2019-01-27T02:45:25.751Z,972.36
2019-01-27T02:46:25.806Z,972.44
2019-01-27T02:47:25.738Z,972.46
2019-01-27T02:48:25.715Z,972.41
2019-01-27T02:49:25.730Z,972.40
2019-01-27T02:50:25.691Z,972.42
2019-01-27T02:51:25.708Z,972.42
2019-01-27T02:52:25.723Z,972.37
2019-01-27T02:53:25.655Z,972.41
2019-01-27T02:54:25.694Z,972.35
2019-01-27T02:55:25.664Z,972.36
2019-01-27T02:56:25.642Z,972.36
2019-01-27T02:57:25.617Z,972.34
2019-01-27T02:58:25.647Z,972.35
2019-01-27T02:59:25.590Z,972.26
2019-01-27T03:00:25.600Z,972.24
2019-01-27T03:01:25.600Z,972.23
2019-01-27T03:02:25.560Z,972.11
2019-01-27T03:03:25.545Z,972.15
2019-01-27T03:04:25.595Z,972.14
2019-01-27T03:05:25.538Z,972.04
2019-01-27T03:06:25.522Z,972.10
2019-01-27T03:07:25.510Z,972.13
2019-01-27T03:08:25.506Z,972.06
2019-01-27T03:09:25.489Z,972.12
2019-01-27T03:10:25.511Z,972.16
2019-01-27T03:11:25.470Z,972.10
2019-01-27T03:12:25.449Z,972.08
2019-01-27T03:13:25.447Z,972.06
2019-01-27T03:14:25.439Z,971.98
2019-01-27T03:15:25.419Z,972.00
2019-01-27T03:16:25.442Z,971.92
2019-01-27T03:17:25.401Z,971.85
2019-01-27T03:18:25.389Z,971.78
2019-01-27T03:19:25.378Z,971.80
2019-01-27T03:20:25.362Z,971.76
2019-01-27T03:21:25.357Z,971.78
2019-01-27T03:22:25.394Z,971.72
2019-01-27T03:23:25.336Z,971.78
2019-01-27T03:24:25.317Z,971.74
2019-01-27T03:25:25.316Z,971.75
2019-01-27T03:26:25.297Z,971.68
2019-01-27T03:27:25.284Z,971.78
2019-01-27T03:28:25.305Z,971.67
2019-01-27T03:29:25.266Z,971.60
2019-01-27T03:30:25.254Z,971.67
2019-01-27T03:31:25.244Z,971.61
2019-01-27T03:32:25.232Z,971.64
2019-01-27T03:33:25.224Z,971.57
2019-01-27T03:34:25.260Z,971.59
2019-01-27T03:35:25.198Z,971.56
2019-01-27T03:36:25.188Z,971.58
2019-01-27T03:37:25.177Z,971.59
2019-01-27T03:38:25.165Z,971.58
2019-01-27T03:39:25.169Z,971.51
2019-01-27T03:40:25.195Z,971.47
2019-01-27T03:41:25.134Z,971.48
2019-01-27T03:42:25.127Z,971.43
2019-01-27T03:43:25.112Z,971.42
2019-01-27T03:44:25.101Z,971.39
2019-01-27T03:45:25.099Z,971.40
2019-01-27T03:46:25.109Z,971.32
2019-01-27T03:47:25.069Z,971.29
2019-01-27T03:48:25.058Z,971.28
2019-01-27T03:49:25.048Z,971.21
2019-01-27T03:50:25.038Z,971.21
2019-01-27T03:51:25.047Z,971.21
2019-01-27T03:52:25.072Z,971.19
2019-01-27T03:53:25.006Z,971.12
2019-01-27T03:54:24.995Z,971.15
2019-01-27T03:55:24.983Z,971.12
2019-01-27T03:56:24.972Z,971.13
2019-01-27T03:57:24.963Z,971.08
2019-01-27T03:58:24.993Z,971.09
2019-01-27T03:59:24.944Z,971.06
2019-01-27T04:00:24.940Z,971.05
2019-01-27T04:01:25.359Z,971.01
2019-01-27T04:02:24.916Z,971.02
2019-01-27T04:03:24.904Z,970.98
2019-01-27T04:04:24.926Z,971.00
2019-01-27T04:05:24.897Z,971.04
2019-01-27T04:06:24.864Z,971.03
2019-01-27T04:07:24.854Z,971.01
2019-01-27T04:08:24.848Z,970.96
2019-01-27T04:09:24.843Z,970.95
2019-01-27T04:10:24.856Z,970.97
2019-01-27T04:11:24.919Z,970.89
2019-01-27T04:12:24.798Z,970.90
2019-01-27T04:13:24.793Z,970.90
2019-01-27T04:14:24.780Z,970.84
2019-01-27T04:15:24.766Z,970.91
2019-01-27T04:16:24.805Z,970.86
2019-01-27T04:17:24.745Z,970.92
2019-01-27T04:18:24.735Z,970.88
2019-01-27T04:19:24.733Z,970.80
2019-01-27T04:20:24.724Z,970.80
2019-01-27T04:21:24.703Z,970.76
2019-01-27T04:22:24.747Z,970.78
2019-01-27T04:23:24.694Z,970.77
2019-01-27T04:24:24.674Z,970.77
2019-01-27T04:25:24.675Z,970.78
2019-01-27T04:26:24.652Z,970.77
2019-01-27T04:27:24.637Z,970.78
2019-01-27T04:28:24.661Z,970.76
2019-01-27T04:29:24.617Z,970.69
2019-01-27T04:30:24.610Z,970.61
2019-01-27T04:31:24.600Z,970.65
2019-01-27T04:32:24.595Z,970.53
2019-01-27T04:33:24.579Z,970.50
2019-01-27T04:34:24.613Z,970.43
2019-01-27T04:35:24.552Z,970.40
2019-01-27T04:36:24.546Z,970.42
2019-01-27T04:37:24.534Z,970.39
2019-01-27T04:38:24.523Z,970.29
2019-01-27T04:39:24.513Z,970.34
2019-01-27T04:40:24.551Z,970.30
2019-01-27T04:41:24.488Z,970.33
2019-01-27T04:42:24.478Z,970.31
2019-01-27T04:43:24.464Z,970.27
2019-01-27T04:44:24.459Z,970.28
2019-01-27T04:45:24.450Z,970.25
2019-01-27T04:46:24.476Z,970.20
2019-01-27T04:47:24.436Z,970.19
2019-01-27T04:48:24.431Z,970.17
2019-01-27T04:49:24.406Z,970.20
2019-01-27T04:50:24.399Z,970.15
2019-01-27T04:51:24.381Z,970.02
2019-01-27T04:52:24.411Z,970.05
2019-01-27T04:53:24.366Z,970.01
2019-01-27T04:54:24.345Z,970.03
2019-01-27T04:55:24.344Z,970.02
2019-01-27T04:56:24.329Z,970.01
2019-01-27T04:57:24.316Z,969.99
2019-01-27T04:58:24.349Z,969.97
2019-01-27T04:59:24.292Z,970.00
2019-01-27T05:00:24.294Z,970.03
2019-01-27T05:01:24.275Z,970.00
2019-01-27T05:02:24.260Z,970.01
2019-01-27T05:03:24.262Z,970.11
2019-01-27T05:04:24.271Z,970.10
2019-01-27T05:05:24.233Z,970.03
2019-01-27T05:06:24.218Z,970.02
2019-01-27T05:07:24.201Z,969.97
2019-01-27T05:08:24.198Z,969.96
2019-01-27T05:09:24.186Z,970.00
2019-01-27T05:10:24.205Z,969.94
2019-01-27T05:11:24.165Z,969.91
2019-01-27T05:12:24.150Z,969.93
2019-01-27T05:13:24.141Z,969.93
2019-01-27T05:14:24.131Z,969.89
2019-01-27T05:15:24.127Z,969.86
2019-01-27T05:16:24.158Z,969.87
2019-01-27T05:17:24.098Z,969.80
2019-01-27T05:18:24.087Z,969.85
2019-01-27T05:19:24.077Z,969.81
2019-01-27T05:20:24.066Z,969.78
2019-01-27T05:21:24.058Z,969.78
2019-01-27T05:22:24.076Z,969.69
2019-01-27T05:23:24.030Z,969.72
2019-01-27T05:24:24.071Z,969.72
2019-01-27T05:25:24.019Z,969.69
2019-01-27T05:26:23.999Z,969.66
2019-01-27T05:27:25.399Z,969.63
2019-01-27T05:28:24.015Z,969.69
2019-01-27T05:29:23.965Z,969.71
2019-01-27T05:30:23.960Z,969.71
2019-01-27T05:31:23.947Z,969.70
2019-01-27T05:32:23.936Z,969.71
2019-01-27T05:33:23.934Z,969.66
2019-01-27T05:34:23.947Z,969.63
2019-01-27T05:35:23.898Z,969.64
2019-01-27T05:36:23.896Z,969.59
2019-01-27T05:37:23.881Z,969.55
2019-01-27T05:38:23.866Z,969.47
2019-01-27T05:39:23.873Z,969.39
2019-01-27T05:40:23.897Z,969.42
2019-01-27T05:41:23.835Z,969.37
2019-01-27T05:42:23.823Z,969.35
2019-01-27T05:43:23.823Z,969.33
2019-01-27T05:44:23.803Z,969.37
2019-01-27T05:45:23.810Z,969.38
2019-01-27T05:46:23.818Z,969.40
2019-01-27T05:47:23.771Z,969.32
2019-01-27T05:48:23.758Z,969.38
2019-01-27T05:49:23.751Z,969.32
2019-01-27T05:50:23.738Z,969.38
2019-01-27T05:51:23.732Z,969.40
2019-01-27T05:52:23.775Z,969.41
2019-01-27T05:53:23.728Z,969.46
2019-01-27T05:54:23.699Z,969.42
2019-01-27T05:55:23.699Z,969.47
2019-01-27T05:56:23.681Z,969.38
2019-01-27T05:57:23.662Z,969.37
2019-01-27T05:58:23.680Z,969.41
2019-01-27T05:59:23.647Z,969.34
2019-01-27T06:00:23.642Z,969.29
2019-01-27T06:01:23.621Z,969.28
2019-01-27T06:02:23.609Z,969.31
2019-01-27T06:03:23.598Z,969.27
2019-01-27T06:04:23.622Z,969.25
2019-01-27T06:05:23.578Z,969.19
2019-01-27T06:06:23.570Z,969.12
2019-01-27T06:07:23.554Z,969.03
2019-01-27T06:08:23.545Z,969.07
2019-01-27T06:09:23.533Z,969.04
2019-01-27T06:10:23.569Z,969.06
2019-01-27T06:11:23.511Z,969.06
2019-01-27T06:12:23.506Z,969.02
2019-01-27T06:13:23.492Z,969.06
2019-01-27T06:14:23.483Z,968.99
2019-01-27T06:15:23.474Z,968.99
2019-01-27T06:16:23.525Z,969.03
2019-01-27T06:17:23.452Z,968.99
2019-01-27T06:18:23.441Z,969.08
2019-01-27T06:19:23.427Z,968.94
2019-01-27T06:20:23.427Z,968.93
2019-01-27T06:21:23.409Z,968.93
2019-01-27T06:22:23.450Z,968.96
2019-01-27T06:23:23.386Z,968.93
2019-01-27T06:24:23.374Z,968.93
2019-01-27T06:25:26.103Z,968.97
2019-01-27T06:26:23.350Z,968.93
2019-01-27T06:27:23.338Z,968.95
2019-01-27T06:28:23.363Z,968.91
2019-01-27T06:29:23.316Z,968.91
2019-01-27T06:30:23.312Z,968.85
2019-01-27T06:31:23.296Z,968.88
2019-01-27T06:32:23.284Z,968.86
2019-01-27T06:33:23.279Z,968.84
2019-01-27T06:34:23.315Z,968.82
2019-01-27T06:35:23.255Z,968.82
2019-01-27T06:36:23.242Z,968.81
2019-01-27T06:37:24.892Z,968.81
2019-01-27T06:38:23.221Z,968.83
2019-01-27T06:39:23.207Z,968.87
2019-01-27T06:40:23.242Z,968.87
2019-01-27T06:41:23.191Z,968.85
2019-01-27T06:42:23.178Z,968.80
2019-01-27T06:43:23.165Z,968.88
2019-01-27T06:44:23.153Z,968.91
2019-01-27T06:45:23.142Z,968.87
2019-01-27T06:46:23.175Z,968.86
2019-01-27T06:47:23.121Z,968.86
2019-01-27T06:48:23.116Z,968.75
2019-01-27T06:49:23.099Z,968.78
2019-01-27T06:50:23.088Z,968.79
2019-01-27T06:51:23.078Z,968.73
2019-01-27T06:52:23.100Z,968.77
2019-01-27T06:53:23.056Z,968.78
2019-01-27T06:54:23.055Z,968.75
2019-01-27T06:55:23.086Z,968.68
2019-01-27T06:56:23.025Z,968.70
2019-01-27T06:57:23.032Z,968.63
2019-01-27T06:58:23.069Z,968.64
2019-01-27T06:59:22.997Z,968.69
2019-01-27T07:00:22.994Z,968.66
2019-01-27T07:01:22.970Z,968.68
2019-01-27T07:02:29.357Z,968.67
2019-01-27T07:03:24.064Z,968.62
2019-01-27T07:04:22.937Z,968.63
2019-01-27T07:05:22.932Z,968.59
2019-01-27T07:06:22.917Z,968.61
2019-01-27T07:07:22.926Z,968.58
2019-01-27T07:08:22.899Z,968.56
2019-01-27T07:09:22.922Z,968.55
2019-01-27T07:10:22.873Z,968.51
2019-01-27T07:11:22.858Z,968.52
2019-01-27T07:12:22.849Z,968.48
2019-01-27T07:13:22.844Z,968.53
2019-01-27T07:14:22.834Z,968.53
2019-01-27T07:15:23.121Z,968.49
2019-01-27T07:16:22.805Z,968.49
2019-01-27T07:17:22.798Z,968.48
2019-01-27T07:18:22.784Z,968.57
2019-01-27T07:19:22.774Z,968.56
2019-01-27T07:20:22.769Z,968.59
2019-01-27T07:21:22.790Z,968.59
2019-01-27T07:22:22.751Z,968.57
2019-01-27T07:23:22.730Z,968.60
2019-01-27T07:24:22.719Z,968.63
2019-01-27T07:25:22.718Z,968.64
2019-01-27T07:26:22.701Z,968.61
2019-01-27T07:27:22.715Z,968.61
2019-01-27T07:28:22.677Z,968.55
2019-01-27T07:29:22.678Z,968.58
2019-01-27T07:30:22.654Z,968.55
2019-01-27T07:31:22.661Z,968.59
2019-01-27T07:32:22.650Z,968.61
2019-01-27T07:33:22.662Z,968.57
2019-01-27T07:34:22.626Z,968.62
2019-01-27T07:35:22.602Z,968.62
2019-01-27T07:36:22.586Z,968.63
2019-01-27T07:37:22.578Z,968.55
2019-01-27T07:38:22.567Z,968.59
2019-01-27T07:39:22.592Z,968.59
2019-01-27T07:40:22.543Z,968.55
2019-01-27T07:41:22.541Z,968.53
2019-01-27T07:42:22.527Z,968.45
2019-01-27T07:43:22.509Z,968.39
2019-01-27T07:44:22.504Z,968.35
2019-01-27T07:45:22.520Z,968.34
2019-01-27T07:46:22.479Z,968.32
2019-01-27T07:47:22.475Z,968.30
2019-01-27T07:48:22.467Z,968.38
2019-01-27T07:49:22.447Z,968.30
2019-01-27T07:50:22.438Z,968.28
2019-01-27T07:51:22.461Z,968.28
2019-01-27T07:52:22.415Z,968.25
2019-01-27T07:53:22.405Z,968.25
2019-01-27T07:54:22.391Z,968.28
2019-01-27T07:55:22.379Z,968.25
2019-01-27T07:56:22.431Z,968.28
2019-01-27T07:57:22.419Z,968.26
2019-01-27T07:58:22.359Z,968.22
2019-01-27T07:59:22.341Z,968.20
2019-01-27T08:00:22.333Z,968.22
2019-01-27T08:01:22.319Z,968.27
2019-01-27T08:02:22.306Z,968.33
2019-01-27T08:03:22.341Z,968.25
2019-01-27T08:04:22.283Z,968.30
2019-01-27T08:05:22.276Z,968.29
2019-01-27T08:06:22.260Z,968.26
2019-01-27T08:07:22.251Z,968.33
2019-01-27T08:08:22.244Z,968.34
2019-01-27T08:09:22.279Z,968.32
2019-01-27T08:10:22.219Z,968.28
2019-01-27T08:11:22.211Z,968.28
2019-01-27T08:12:22.194Z,968.32
2019-01-27T08:13:22.184Z,968.35
2019-01-27T08:14:22.172Z,968.28
2019-01-27T08:15:22.193Z,968.31
2019-01-27T08:16:22.161Z,968.36
2019-01-27T08:17:22.142Z,968.38
2019-01-27T08:18:22.131Z,968.44
2019-01-27T08:19:22.119Z,968.39
2019-01-27T08:20:22.108Z,968.43
2019-01-27T08:21:22.135Z,968.48
2019-01-27T08:22:22.103Z,968.41
2019-01-27T08:23:22.079Z,968.43
2019-01-27T08:24:22.070Z,968.37
2019-01-27T08:25:22.063Z,968.38
2019-01-27T08:26:22.046Z,968.38
2019-01-27T08:27:22.075Z,968.45
2019-01-27T08:28:22.022Z,968.40
2019-01-27T08:29:22.016Z,968.44
2019-01-27T08:30:22.003Z,968.34
2019-01-27T08:31:21.994Z,968.35
2019-01-27T08:32:22.000Z,968.35
2019-01-27T08:33:21.999Z,968.38
2019-01-27T08:34:21.971Z,968.28
2019-01-27T08:35:21.956Z,968.38
2019-01-27T08:36:21.936Z,968.35
2019-01-27T08:37:21.928Z,968.30
2019-01-27T08:38:21.914Z,968.26
2019-01-27T08:39:21.950Z,968.24
2019-01-27T08:40:21.899Z,968.31
2019-01-27T08:41:21.883Z,968.24
2019-01-27T08:42:21.871Z,968.22
2019-01-27T08:43:21.861Z,968.25
2019-01-27T08:44:21.851Z,968.22
2019-01-27T08:45:21.900Z,968.27
2019-01-27T08:46:21.829Z,968.28
2019-01-27T08:47:21.816Z,968.28
2019-01-27T08:48:21.806Z,968.26
2019-01-27T08:49:21.794Z,968.32
2019-01-27T08:50:21.786Z,968.29
2019-01-27T08:51:21.819Z,968.32
2019-01-27T08:52:21.764Z,968.29
2019-01-27T08:53:21.751Z,968.26
2019-01-27T08:54:21.741Z,968.30
2019-01-27T08:55:21.733Z,968.26
2019-01-27T08:56:21.718Z,968.26
2019-01-27T08:57:21.755Z,968.25
2019-01-27T08:58:21.696Z,968.19
2019-01-27T08:59:21.686Z,968.20
2019-01-27T09:00:21.681Z,968.19
2019-01-27T09:01:21.666Z,968.20
2019-01-27T09:02:21.657Z,968.19
2019-01-27T09:03:21.679Z,968.22
2019-01-27T09:04:21.631Z,968.21
2019-01-27T09:05:21.621Z,968.15
2019-01-27T09:06:21.619Z,968.13
2019-01-27T09:07:21.599Z,968.12
2019-01-27T09:08:21.592Z,968.11
2019-01-27T09:09:21.628Z,968.11
2019-01-27T09:10:21.572Z,968.11
2019-01-27T09:11:21.559Z,968.08
2019-01-27T09:12:21.579Z,968.04
2019-01-27T09:13:21.536Z,968.05
2019-01-27T09:14:21.525Z,968.06
2019-01-27T09:15:21.576Z,967.95
2019-01-27T09:16:21.500Z,967.96
2019-01-27T09:17:21.644Z,967.99
2019-01-27T09:18:21.479Z,967.86
2019-01-27T09:19:21.471Z,967.89
2019-01-27T09:20:21.462Z,967.81
2019-01-27T09:21:21.490Z,967.89
2019-01-27T09:22:21.469Z,967.87
2019-01-27T09:23:21.424Z,967.88
2019-01-27T09:24:21.417Z,967.85
2019-01-27T09:25:21.403Z,967.83
2019-01-27T09:26:21.425Z,967.83
2019-01-27T09:27:21.421Z,967.80
2019-01-27T09:28:21.367Z,967.81
2019-01-27T09:29:21.360Z,967.78
2019-01-27T09:30:21.387Z,967.77
2019-01-27T09:31:21.343Z,967.77
2019-01-27T09:32:21.325Z,967.72
2019-01-27T09:33:21.361Z,967.73
2019-01-27T09:34:21.304Z,967.70
2019-01-27T09:35:21.293Z,967.74
2019-01-27T09:36:21.285Z,967.71
2019-01-27T09:37:21.380Z,967.75
2019-01-27T09:38:21.263Z,967.67
2019-01-27T09:39:21.306Z,967.70
2019-01-27T09:40:21.252Z,967.78
2019-01-27T09:41:21.250Z,967.77
2019-01-27T09:42:21.216Z,967.68
2019-01-27T09:43:21.207Z,967.68
2019-01-27T09:44:21.195Z,967.64
2019-01-27T09:45:21.224Z,967.76
2019-01-27T09:46:21.177Z,967.71
2019-01-27T09:47:21.171Z,967.68
2019-01-27T09:48:21.154Z,967.80
2019-01-27T09:49:21.170Z,967.66
2019-01-27T09:50:21.132Z,967.81
2019-01-27T09:51:21.156Z,967.84
2019-01-27T09:52:21.135Z,967.80
2019-01-27T09:53:21.096Z,967.76
2019-01-27T09:54:21.086Z,967.75
2019-01-27T09:55:21.083Z,967.74
2019-01-27T09:56:21.066Z,967.71
2019-01-27T09:57:21.105Z,967.64
2019-01-27T09:58:21.042Z,967.63
2019-01-27T09:59:21.033Z,967.64
2019-01-27T10:00:21.024Z,967.60
2019-01-27T10:01:21.008Z,967.65
2019-01-27T10:02:20.999Z,967.65
2019-01-27T10:03:21.023Z,967.56
2019-01-27T10:04:20.976Z,967.64
2019-01-27T10:05:20.969Z,967.61
2019-01-27T10:06:20.955Z,967.55
2019-01-27T10:07:20.945Z,967.68
2019-01-27T10:08:20.942Z,967.71
2019-01-27T10:09:20.961Z,967.64
2019-01-27T10:10:20.910Z,967.63
2019-01-27T10:11:26.682Z,967.62
2019-01-27T10:12:21.888Z,967.65
2019-01-27T10:13:20.932Z,967.59
2019-01-27T10:14:21.487Z,967.62
2019-01-27T10:15:20.931Z,967.61
2019-01-27T10:16:20.849Z,967.60
2019-01-27T10:17:20.861Z,967.59
2019-01-27T10:18:20.822Z,967.62
2019-01-27T10:19:20.811Z,967.59
2019-01-27T10:20:20.808Z,967.58
2019-01-27T10:21:20.834Z,967.52
2019-01-27T10:22:20.779Z,967.59
2019-01-27T10:23:20.775Z,967.62
2019-01-27T10:24:20.760Z,967.61
2019-01-27T10:25:20.757Z,967.56
2019-01-27T10:26:20.736Z,967.54
2019-01-27T10:27:20.763Z,967.54
2019-01-27T10:28:20.717Z,967.53
2019-01-27T10:29:20.780Z,967.51
2019-01-27T10:30:20.694Z,967.44
2019-01-27T10:31:20.683Z,967.42
2019-01-27T10:32:20.688Z,967.40
2019-01-27T10:33:20.700Z,967.40
2019-01-27T10:34:20.656Z,967.38
2019-01-27T10:35:20.645Z,967.35
2019-01-27T10:36:20.637Z,967.35
2019-01-27T10:37:20.614Z,967.33
2019-01-27T10:38:20.619Z,967.35
2019-01-27T10:39:20.690Z,967.31
2019-01-27T10:40:20.588Z,967.32
2019-01-27T10:41:20.573Z,967.28
2019-01-27T10:42:20.575Z,967.31
2019-01-27T10:43:20.556Z,967.27
2019-01-27T10:44:20.574Z,967.30
2019-01-27T10:45:20.581Z,967.29
2019-01-27T10:46:20.520Z,967.25
2019-01-27T10:47:20.513Z,967.30
2019-01-27T10:48:20.501Z,967.25
2019-01-27T10:49:20.483Z,967.23
2019-01-27T10:50:20.484Z,967.19
2019-01-27T10:51:20.533Z,967.26
2019-01-27T10:52:20.470Z,967.23
2019-01-27T10:53:21.007Z,967.26
2019-01-27T10:54:20.448Z,967.21
2019-01-27T10:55:20.426Z,967.21
2019-01-27T10:56:20.408Z,967.20
2019-01-27T10:57:20.435Z,967.14
2019-01-27T10:58:20.390Z,967.07
2019-01-27T10:59:20.378Z,967.11
2019-01-27T11:00:20.366Z,967.08
2019-01-27T11:01:20.353Z,967.07
2019-01-27T11:02:20.457Z,967.07
2019-01-27T11:03:20.370Z,967.06
2019-01-27T11:04:20.318Z,967.00
2019-01-27T11:05:20.310Z,967.08
2019-01-27T11:06:20.301Z,967.06
2019-01-27T11:07:20.388Z,967.06
2019-01-27T11:08:20.309Z,967.05
2019-01-27T11:09:20.370Z,967.07
2019-01-27T11:10:20.252Z,966.99
2019-01-27T11:11:20.243Z,967.00
2019-01-27T11:12:20.241Z,967.00
2019-01-27T11:13:20.221Z,966.97
2019-01-27T11:14:20.208Z,966.98
2019-01-27T11:15:20.233Z,967.03
2019-01-27T11:16:20.193Z,966.96
2019-01-27T11:17:20.182Z,966.97
2019-01-27T11:18:20.173Z,967.00
2019-01-27T11:19:20.161Z,966.92
2019-01-27T11:20:20.149Z,966.95
2019-01-27T11:21:20.170Z,966.96
2019-01-27T11:22:20.124Z,966.90
2019-01-27T11:23:20.113Z,966.89
2019-01-27T11:24:20.102Z,966.91
2019-01-27T11:25:20.095Z,966.85
2019-01-27T11:26:20.084Z,966.85
2019-01-27T11:27:20.105Z,966.78
2019-01-27T11:28:20.055Z,966.76
2019-01-27T11:29:20.044Z,966.71
2019-01-27T11:30:20.046Z,966.69
2019-01-27T11:31:20.045Z,966.68
2019-01-27T11:32:20.012Z,966.69
2019-01-27T11:33:20.144Z,966.63
2019-01-27T11:34:20.029Z,966.62
2019-01-27T11:35:22.074Z,966.56
2019-01-27T11:36:19.982Z,966.54
2019-01-27T11:37:19.963Z,966.54
2019-01-27T11:38:19.951Z,966.55
2019-01-27T11:39:19.975Z,966.53
2019-01-27T11:40:19.940Z,966.51
2019-01-27T11:41:19.934Z,966.47
2019-01-27T11:42:19.903Z,966.49
2019-01-27T11:43:19.895Z,966.49
2019-01-27T11:44:19.891Z,966.48
2019-01-27T11:45:19.906Z,966.47
2019-01-27T11:46:19.879Z,966.50
2019-01-27T11:47:19.857Z,966.41
2019-01-27T11:48:19.844Z,966.39
2019-01-27T11:49:19.833Z,966.44
2019-01-27T11:50:19.820Z,966.49
2019-01-27T11:51:19.886Z,966.48
2019-01-27T11:52:19.799Z,966.41
2019-01-27T11:53:19.835Z,966.44
2019-01-27T11:54:19.777Z,966.45
2019-01-27T11:55:19.772Z,966.43
2019-01-27T11:56:19.751Z,966.39
2019-01-27T11:57:19.778Z,966.41
2019-01-27T11:58:19.732Z,966.40
2019-01-27T11:59:19.720Z,966.43
2019-01-27T12:00:19.719Z,966.40
2019-01-27T12:01:19.723Z,966.41
2019-01-27T12:02:19.696Z,966.43
2019-01-27T12:03:19.727Z,966.34
2019-01-27T12:04:19.668Z,966.42
2019-01-27T12:05:19.656Z,966.38
2019-01-27T12:06:19.643Z,966.39
2019-01-27T12:07:19.638Z,966.32
2019-01-27T12:08:19.625Z,966.37
2019-01-27T12:09:19.643Z,966.35
2019-01-27T12:10:19.606Z,966.35
2019-01-27T12:11:19.593Z,966.24
2019-01-27T12:12:19.587Z,966.17
2019-01-27T12:13:19.574Z,966.19
2019-01-27T12:14:19.555Z,966.16
2019-01-27T12:15:19.732Z,966.11
2019-01-27T12:16:19.544Z,966.12
2019-01-27T12:17:19.523Z,966.25
2019-01-27T12:18:19.559Z,966.18
2019-01-27T12:19:19.506Z,966.18
2019-01-27T12:20:19.493Z,966.07
2019-01-27T12:21:19.538Z,966.09
2019-01-27T12:22:19.469Z,966.05
2019-01-27T12:23:19.459Z,966.06
2019-01-27T12:24:19.464Z,966.11
2019-01-27T12:25:19.438Z,966.12
2019-01-27T12:26:19.430Z,966.13
2019-01-27T12:27:19.451Z,966.11
2019-01-27T12:28:19.409Z,966.18